CST,Max TemperatureF,Mean TemperatureF,Min TemperatureF,Max Dew PointF,MeanDew PointF,Min DewpointF,Max Humidity, Mean Humidity, Min Humidity, Max Sea Level PressureIn, Mean Sea Level PressureIn, Min Sea Level PressureIn, Max VisibilityMiles, Mean VisibilityMiles, Min VisibilityMiles, Max Wind SpeedMPH, Mean Wind SpeedMPH, Max Gust SpeedMPH,PrecipitationIn, CloudCover, Events, WindDirDegrees
2014-1-1,17,15,12,13,10,7,88,81,73,30.26,30.21,30.15,10,4,1,22,14,26,T,7,Snow,30
2014-1-2,14,6,-3,7,2,-6,83,75,66,30.51,30.38,30.24,10,10,9,17,10,23,0.00,4,,330
2014-1-3,24,9,-6,14,3,-9,91,74,57,30.51,30.22,29.84,10,10,9,28,13,33,0.00,1,,186
2014-1-4,34,26,18,24,18,14,91,76,61,30.07,29.94,29.82,10,5,1,23,14,31,0.00,6,Snow,298
2014-1-5,18,5,-8,14,2,-19,92,72,51,30.38,30.15,30.02,10,4,1,28,19,39,0.00,7,Snow,345
2014-1-6,-4,-9,-14,-16,-20,-24,72,62,52,30.46,30.41,30.33,10,10,8,26,12,35,0.00,3,,288
2014-1-7,14,2,-10,1,-6,-16,86,72,58,30.41,30.31,30.19,10,10,10,12,6,14,0.00,4,,174
2014-1-8,14,8,2,2,1,-1,95,77,58,30.53,30.45,30.30,10,10,10,10,5,12,0.00,5,,34
2014-1-9,29,19,9,27,15,0,92,78,63,30.50,30.28,30.10,10,5,1,12,6,14,T,8,Snow,122
2014-1-10,41,35,29,40,34,27,100,80,59,30.11,29.74,29.51,9,3,0,20,10,24,0.33,8,Fog-Rain,175
2014-1-11,50,46,45,35,32,29,61,54,46,29.88,29.66,29.50,10,9,4,15,11,23,0.00,6,,290
2014-1-12,,,,,,,,,,29.87,29.67,29.54,10,10,6,21,11,33,0.00,0,,187
2014-1-13,44,36,27,33,29,26,92,76,59,29.82,29.70,29.56,10,10,8,18,7,25,0.00,2,,278
2014-1-14,38,30,21,33,23,13,92,73,53,30.09,29.83,29.64,10,10,4,30,16,46,T,7,Rain-Snow,277
2014-1-15,27,20,12,15,9,6,80,71,62,30.22,30.11,29.82,10,9,5,22,12,28,T,5,Snow,286
2014-1-16,40,26,11,32,20,4,85,69,52,29.90,29.72,29.60,10,6,0,31,14,43,0.00,7,Fog-Rain-Snow,289
2014-1-17,17,12,6,7,3,-2,76,69,61,30.09,30.01,29.90,10,9,4,21,11,30,T,5,Snow,292
2014-1-18,32,21,9,28,19,5,92,73,54,30.02,29.74,29.57,10,6,0,22,9,27,0.00,7,Fog-Snow,174
2014-1-19,46,30,14,30,22,10,88,71,53,30.00,29.80,29.64,10,10,10,24,13,29,0.00,0,,236
2014-1-20,42,29,16,32,27,11,96,79,62,30.16,29.95,29.75,10,6,1,32,9,41,0.01,5,Snow,346
2014-1-21,16,9,1,11,1,-8,80,69,57,30.46,30.29,30.14,10,8,1,31,10,38,T,5,Snow,354
2014-1-22,22,11,0,11,3,-8,76,68,60,30.44,30.15,30.01,10,9,2,26,15,39,T,7,Snow,301
2014-1-23,7,1,-5,-6,-9,-13,72,64,55,30.76,30.66,30.43,10,10,6,20,11,28,0.00,1,,307
2014-1-24,37,18,-2,23,8,-6,79,61,43,30.62,30.00,29.57,10,10,6,33,18,45,T,4,Snow,227
2014-1-25,38,27,15,33,12,-3,85,61,36,29.97,29.79,29.56,10,10,9,29,14,43,T,4,Rain,305
2014-1-26,47,27,7,31,19,-7,65,53,40,30.12,29.65,29.47,10,9,1,35,17,53,T,6,Rain-Snow,296
2014-1-27,7,3,-2,-4,-9,-12,72,62,51,30.56,30.39,30.13,10,10,7,28,13,38,0.00,5,,316
2014-1-28,16,6,-5,-2,-6,-11,82,62,42,30.55,30.44,30.32,10,10,8,17,6,25,0.00,0,,256
2014-1-29,34,18,2,9,4,-5,83,58,32,30.31,30.16,29.93,10,10,9,24,12,31,0.00,0,,209
2014-1-30,37,28,18,28,18,10,92,65,38,30.04,29.78,29.66,10,8,0,32,18,43,T,4,Snow,225
2014-1-31,19,16,12,13,10,4,88,78,67,30.22,30.11,30.02,10,4,1,14,7,18,T,8,Snow,20